HBBA/BJM METAR and TAF weather

Enter ICAO airport designator
Station Type Date Time Source
HBBA METAR 2022/11/26 09:00 UTC NOAA

HBBA 260900Z 18004KT 9000 FEW030TCU BKN10026/20 Q1013 NOSIG


Station Type Date Time Source
HBBA Decoded METAR 2022/11/26 09:00 UTC NOAA

Bujumbura, Burundi (HBBA) 03-19S 029-19E 783M
Nov 26, 2022 - 04:00 AM EST / 2022.11.26 0900 UTC
Wind: from the S (180 degrees) at 5 MPH (4 KT):0
Visibility: 5 mile(s):0
Sky conditions: mostly cloudy
Weather: Towering cumulus clouds observed
Pressure (altimeter): 29.91 in. Hg (1013 hPa)
ob: HBBA 260900Z 18004KT 9000 FEW030TCU BKN10026/20 Q1013 NOSIG
cycle: 9

Station Type Date Time Source
HBBA TAF 2022/11/26 06:56 UTC NOAA

TAF HBBA 260500Z 2606/2712 36004KT 9999 FEW030 BKN100
BECMG 2608/2610 18010G20KT
TEMPO2611/2617 02012G25KT 7000 TSRA OR SHRA FEW025CB BKN090
BECMG2621/2623 VRB03KT 9999 FEW030 BKN100
BECMG2708/2710 19010G20KT 9999 FEW025 BKN100

Example: see airport list